Abbotsford, British Columbia

4:02 AM PDT on August 05, 2015 (GMT -0700)
Hwy 1 @ McCallum | | Change Station
CLOSE
Current Station
Personal Weather Station
Location: Abbotsford, BC
Elevation: 190 ft
Nearby Weather Stations

Elev 190 ft 49.03 °N, 122.30 °W | Updated 13 seconds ago

Overcast
Overcast
55.8 °F
Feels Like 55.8 °F
N
0.1
Wind Variable Wind from NNW
Gusts 1.2 mph

Today
High -- | Low -- °F
--% Chance of Precip.
Yesterday
High -- | Low -- °F
Precip. -- in
5:47 AM 8:42 PM
Waning Gibbous, 68% visible
Pressure 30.01 in
Visibility 10.0 miles
Clouds Clear
Dew Point 51 °F
Humidity 83%
Rainfall 0.00 in
Snow Depth Not available.
UV 0.0 out of 12
Pollen Not available.
Air Quality Not available.
Flu Activity Not available.
METAR KBLI 051053Z AUTO 16004KT 10SM CLR 15/11 A3000 RMK AO2 SLP163 T01500111

More Conditions Fewer Conditions

Pressure 30.01 in
Visibility 10.0 miles
Clouds Clear
Dew Point 51 °F
Humidity 83%
Rainfall 0.00 in
Snow Depth Not available.
UV 0.0 out of 12
Pollen Not available.
Air Quality Not available.
Flu Activity Not available.
METAR KBLI 051053Z AUTO 16004KT 10SM CLR 15/11 A3000 RMK AO2 SLP163 T01500111

More Conditions Fewer Conditions

10-Day Weather Forecast

×

Almanac

Astronomy

Aug. 05, 2015 Rise Set
Actual Time
Civil Twilight
Nautical Twilight
Astronomical Twilight
Moon
Length of Visible Light
Length of Day
Tomorrow will be .
, % of the Moon is Illuminated

Today's Extremes

Country Highs Country Lows

Community

WunderPhotos

Upload Photos

1,844,125 photos uploaded!

WunderBlogs® & News

Nearby

Air Quality

  Air Quality AQ Index Pollutant
Not available.

Snow Depth

Station Depth Elevation

Earthquake Activity

City Distance Mag. Time & Date
Minimum magnitude displayed is 2.5.

Coastal Water Temperatures

Place Temperature

Stations

Nearby Weather Stations

Station Location Temp. Windchill Dew Point Humidity Wind Precip. Elev Updated Type